Tropical Cyclones
[Index]
Season 2021-2022 Tropical Cyclone PADDY Track Map
Season 2021-2022 Summaries: [BoM-AU]
<<- Previous TC | BoM 2021-2022 Season | Next TC ->>

click for intensity scale information  Lat/long Grid: Show Hide

 Date Labels: Show Hide

Bureau of Meteorology Tropical Cyclone Data

Name: PADDY

19 Nov 2021 06:00 UTC to 25 Nov 2021 12:00 UTC

    date/time    lat    long    hPa   cat  kts
2021-11-19 06    9.8   103.1   1006         20          
2021-11-19 12   10.5   103.7   1006         20          
2021-11-19 18   10.3   104.3   1005         20          
2021-11-20 00   10.4   104.9   1005         20          
2021-11-20 06   10.5   105.2   1005         20          
2021-11-20 12   10.7   105.7   1005         20          
2021-11-20 18   11.2   105.9   1003         25          
2021-11-21 00   11.6   106.0   1003         25          
2021-11-21 06   11.7   106.4   1003         25          
2021-11-21 12   12.0   106.9   1002         30          
2021-11-21 18   12.5   107.6    999         35          
2021-11-22 00   12.9   108.0    997         40          
2021-11-22 06   13.3   108.0    997         40          
2021-11-22 12   13.4   107.9    995    1    40          
2021-11-22 18   13.5   107.7    994    1    40          
2021-11-23 00   13.6   107.5    996         40          
2021-11-23 06   13.8   107.3    993    1    45          
2021-11-23 12   13.8   107.0    992    1    45          
2021-11-23 18   13.9   106.8    998         35          
2021-11-24 00   14.0   106.6   1004         25          
2021-11-24 06   14.3   105.9   1004         25          
2021-11-24 12   14.1   105.4   1005         25          
2021-11-24 18   14.2   104.8   1005         25          
2021-11-25 00   14.2   104.4   1005         25          
2021-11-25 06   14.5   103.7   1008         20          
2021-11-25 12   14.5   102.6   1007         20          
Winds are 10-min average.

Tropical cyclone tracks developed by Michael Bath using data from the Bureau of Meteorology and Google Maps.


Document: tropical_cyclone_paddy.htm
Updated: 23 June 2022
[Australian Severe Weather index] [Copyright Notice] [Email Contacts] [Search This Site] [Privacy Policy]


Main Index Home Page Stock Weather Photos Extreme Storms Discussion Storm News and Storm Chasing Reports Tropical Cyclones / Hurricanes / Typhoons Weather Data and Links Wild Fires / Bushfires Weather Observation Techniques Weather Picture Catalogue Tornado Pictures and Reports Stock Video Footage and DVDs for sale